Forside
METAR-TAF:

METAR-TAF

Lufthavne :

Platteville, Wisconsin, USA

Breddekreds: 42-41-22N, længdekreds: 090-26-40W, højde: 312 m

Aktuelle vejr

Denne rapport blev lavet for 22 minutter siden, kl. 03:55 UTC
Vind 14 kt fra østsydøst med vindstød på up til 19 kt
Temperatur -3°C
Fugtighed 100%
Tryk 1018 hPa
Sigt: 8.0 km
Overskyet i en højde af 1100 ft

METAR: KPVB 180355Z AUTO 12014G19KT 5SM OVC011 M03/M03 A3005 RMK AO1 P0001 T10341034

Tid: 22:17 (04:17 UTC)


TAF: fraværende

Vejrobservationer og prognoser fra mere end 4000 lufthavne (METAR og TAF).

De gule og røde prikker repræsenterer de meteorologiske stationer.

Flyt musen over at se navnet på stationen.

Så klik over at se vejr observationer og prognoser.

At skifte det kort: Klik på de grønne knapper med et sort kors for at zoome ind; på den grønne knap med en bindestreg for at zoome ud; eller på de grønne pile for tilstødende kort.


METAR-TAF: